createdAt,value
2022-08-13T00:01:43.921Z,17.43
2022-08-13T00:04:20.494Z,17.40
2022-08-13T00:07:11.433Z,17.36
2022-08-13T00:09:43.770Z,17.49
2022-08-13T00:12:34.648Z,17.44
2022-08-13T00:15:13.403Z,17.41
2022-08-13T00:18:02.102Z,17.43
2022-08-13T00:20:39.497Z,17.41
2022-08-13T00:23:21.069Z,17.39
2022-08-13T00:25:55.919Z,17.39
2022-08-13T00:28:29.412Z,17.33
2022-08-13T00:31:00.250Z,17.34
2022-08-13T00:33:44.635Z,17.27
2022-08-13T00:36:29.152Z,17.27
2022-08-13T00:39:04.715Z,17.32
2022-08-13T00:41:57.259Z,17.29
2022-08-13T00:44:32.907Z,17.31
2022-08-13T00:47:23.603Z,17.28
2022-08-13T00:50:00.381Z,17.24
2022-08-13T00:52:37.105Z,17.24
2022-08-13T00:55:09.912Z,17.23
2022-08-13T00:57:52.859Z,17.23
2022-08-13T01:00:26.998Z,17.17
2022-08-13T01:03:14.244Z,17.20
2022-08-13T01:05:46.463Z,17.24
2022-08-13T01:08:29.329Z,17.22
2022-08-13T01:11:03.977Z,17.18
2022-08-13T01:13:38.683Z,17.22
2022-08-13T01:16:14.579Z,17.15
2022-08-13T01:18:47.658Z,17.09
2022-08-13T01:21:20.536Z,17.18
2022-08-13T01:24:02.379Z,17.06
2022-08-13T01:26:37.370Z,17.10
2022-08-13T01:29:10.857Z,17.09
2022-08-13T01:31:44.686Z,17.14
2022-08-13T01:34:24.739Z,17.05
2022-08-13T01:36:57.557Z,17.04
2022-08-13T01:39:38.684Z,17.08
2022-08-13T01:42:21.554Z,17.05
2022-08-13T01:45:05.438Z,17.03
2022-08-13T01:47:57.883Z,17.08
2022-08-13T01:50:36.747Z,17.02
2022-08-13T01:53:12.271Z,17.08
2022-08-13T01:56:15.012Z,16.97
2022-08-13T01:59:08.954Z,16.95
2022-08-13T02:01:41.478Z,16.95
2022-08-13T02:04:22.741Z,16.89
2022-08-13T02:06:55.702Z,16.89
2022-08-13T02:10:00.723Z,16.97
2022-08-13T02:12:33.092Z,17.00
2022-08-13T02:15:08.877Z,16.92
2022-08-13T02:18:02.684Z,16.85
2022-08-13T02:20:35.399Z,16.89
2022-08-13T02:23:06.072Z,16.91
2022-08-13T02:25:37.580Z,16.82
2022-08-13T02:28:12.755Z,16.80
2022-08-13T02:30:56.890Z,16.77
2022-08-13T02:33:27.555Z,16.83
2022-08-13T02:35:59.814Z,16.79
2022-08-13T02:38:31.127Z,16.82
2022-08-13T02:41:24.292Z,16.80
2022-08-13T02:43:59.094Z,16.87
2022-08-13T02:46:32.739Z,16.90
2022-08-13T02:49:01.312Z,16.82
2022-08-13T02:52:06.267Z,16.88
2022-08-13T02:54:25.293Z,16.89
2022-08-13T02:56:53.987Z,16.84
2022-08-13T03:00:01.061Z,16.73
2022-08-13T03:02:20.801Z,16.62
2022-08-13T03:04:52.826Z,16.60
2022-08-13T03:07:20.863Z,16.73
2022-08-13T03:09:51.549Z,16.64
2022-08-13T03:12:22.518Z,16.68
2022-08-13T03:15:03.712Z,16.59
2022-08-13T03:17:34.181Z,16.50
2022-08-13T03:20:04.466Z,16.58
2022-08-13T03:22:52.491Z,16.59
2022-08-13T03:25:24.248Z,16.75
2022-08-13T03:28:00.438Z,16.77
2022-08-13T03:30:32.147Z,16.86
2022-08-13T03:33:11.360Z,16.84
2022-08-13T03:35:49.390Z,16.82
2022-08-13T03:38:19.136Z,16.89
2022-08-13T03:41:12.545Z,16.95
2022-08-13T03:43:54.025Z,17.04
2022-08-13T03:46:28.063Z,17.13
2022-08-13T03:48:59.849Z,17.25
2022-08-13T03:51:35.508Z,17.36
2022-08-13T03:54:06.335Z,17.40
2022-08-13T03:56:42.670Z,17.44
2022-08-13T03:59:28.655Z,17.56
2022-08-13T04:02:05.022Z,17.55
2022-08-13T04:04:38.118Z,17.56
2022-08-13T04:07:11.062Z,17.60
2022-08-13T04:09:55.467Z,17.68
2022-08-13T04:12:26.962Z,17.70
2022-08-13T04:15:02.045Z,17.79
2022-08-13T04:17:34.833Z,17.83
2022-08-13T04:20:11.464Z,17.89
2022-08-13T04:22:43.272Z,17.92
2022-08-13T04:25:24.805Z,17.92
2022-08-13T04:28:08.488Z,18.01
2022-08-13T04:30:42.563Z,18.06
2022-08-13T04:33:21.239Z,18.05
2022-08-13T04:35:53.438Z,18.11
2022-08-13T04:38:26.591Z,18.24
2022-08-13T04:40:59.063Z,18.41
2022-08-13T04:43:34.121Z,18.50
2022-08-13T04:46:06.728Z,18.55
2022-08-13T04:48:38.888Z,18.62
2022-08-13T04:51:17.033Z,18.71
2022-08-13T04:53:50.147Z,18.75
2022-08-13T04:56:21.221Z,18.88
2022-08-13T04:58:49.645Z,19.02
2022-08-13T05:01:52.439Z,19.17
2022-08-13T05:04:17.215Z,19.22
2022-08-13T05:06:52.464Z,19.23
2022-08-13T05:09:30.803Z,19.40
2022-08-13T05:12:05.547Z,19.44
2022-08-13T05:14:38.942Z,19.67
2022-08-13T05:17:13.740Z,20.12
2022-08-13T05:19:50.649Z,20.38
2022-08-13T05:22:30.007Z,20.55
2022-08-13T05:26:19.686Z,20.98
2022-08-13T05:27:56.550Z,21.19
2022-08-13T05:30:34.268Z,21.27
2022-08-13T05:33:05.795Z,21.28
2022-08-13T05:38:09.396Z,21.62
2022-08-13T05:38:40.851Z,21.95
2022-08-13T05:41:20.090Z,21.93
2022-08-13T05:43:53.304Z,21.93
2022-08-13T05:46:28.033Z,21.86
2022-08-13T05:48:58.724Z,21.81
2022-08-13T05:52:33.465Z,21.91
2022-08-13T05:56:13.756Z,22.04
2022-08-13T05:57:15.287Z,21.97
2022-08-13T06:00:02.975Z,21.75
2022-08-13T06:02:52.970Z,21.89
2022-08-13T06:05:46.670Z,21.88
2022-08-13T06:08:43.181Z,21.85
2022-08-13T06:11:09.464Z,21.88
2022-08-13T06:14:04.970Z,21.80
2022-08-13T06:16:49.951Z,22.06
2022-08-13T06:19:28.363Z,22.24
2022-08-13T06:22:04.402Z,22.39
2022-08-13T06:24:52.915Z,22.67
2022-08-13T06:30:03.927Z,22.94
2022-08-13T06:32:35.470Z,23.00
2022-08-13T06:35:23.074Z,23.06
2022-08-13T06:37:52.459Z,22.65
2022-08-13T06:40:35.866Z,22.85
2022-08-13T06:43:07.816Z,23.11
2022-08-13T06:45:42.357Z,23.26
2022-08-13T06:48:16.649Z,23.21
2022-08-13T06:50:50.151Z,23.32
2022-08-13T06:54:21.096Z,23.36
2022-08-13T06:56:35.159Z,23.46
2022-08-13T06:59:13.459Z,23.70
2022-08-13T07:02:07.850Z,23.94
2022-08-13T07:04:58.178Z,24.25
2022-08-13T07:07:27.788Z,24.47
2022-08-13T07:09:57.238Z,24.48
2022-08-13T07:12:26.817Z,24.57
2022-08-13T07:14:58.320Z,24.43
2022-08-13T07:17:31.274Z,24.57
2022-08-13T07:20:06.317Z,24.65
2022-08-13T07:24:40.142Z,24.82
2022-08-13T07:25:56.957Z,25.04
2022-08-13T07:28:40.867Z,25.15
2022-08-13T07:31:12.170Z,25.35
2022-08-13T07:33:54.258Z,25.32
2022-08-13T07:36:26.163Z,25.62
2022-08-13T07:38:58.981Z,25.81
2022-08-13T07:41:30.600Z,25.69
2022-08-13T07:44:04.537Z,25.69
2022-08-13T07:46:50.624Z,25.77
2022-08-13T07:49:23.770Z,25.53
2022-08-13T07:52:10.800Z,25.70
2022-08-13T07:54:41.499Z,25.96
2022-08-13T07:57:13.231Z,25.89
2022-08-13T08:00:03.402Z,26.13
2022-08-13T08:02:34.129Z,25.95
2022-08-13T08:05:11.357Z,26.06
2022-08-13T08:08:07.334Z,26.19
2022-08-13T08:10:33.986Z,26.28
2022-08-13T08:13:02.679Z,26.62
2022-08-13T08:16:01.371Z,26.79
2022-08-13T08:18:25.579Z,26.80
2022-08-13T08:21:47.587Z,26.80
2022-08-13T08:24:02.494Z,27.03
2022-08-13T08:26:32.714Z,27.27
2022-08-13T08:29:03.504Z,26.96
2022-08-13T08:31:57.902Z,26.86
2022-08-13T08:34:23.168Z,26.92
2022-08-13T08:36:54.391Z,26.98
2022-08-13T08:39:45.004Z,27.33
2022-08-13T08:42:31.132Z,27.41
2022-08-13T08:45:01.863Z,27.62
2022-08-13T08:47:47.850Z,27.28
2022-08-13T08:50:27.549Z,27.07
2022-08-13T08:53:23.213Z,27.18
2022-08-13T08:56:08.578Z,27.06
2022-08-13T08:58:38.602Z,27.27
2022-08-13T09:01:14.310Z,27.19
2022-08-13T09:03:57.425Z,27.15
2022-08-13T09:06:53.406Z,27.40
2022-08-13T09:09:20.215Z,27.75
2022-08-13T09:11:56.639Z,28.05
2022-08-13T09:14:28.150Z,28.17
2022-08-13T09:19:47.485Z,28.50
2022-08-13T09:22:24.088Z,28.69
2022-08-13T09:24:58.306Z,28.53
2022-08-13T09:28:02.148Z,28.72
2022-08-13T09:30:23.520Z,28.92
2022-08-13T09:33:00.186Z,29.04
2022-08-13T09:35:34.065Z,29.09
2022-08-13T09:38:12.758Z,29.09
2022-08-13T09:40:56.757Z,28.72
2022-08-13T09:43:48.113Z,28.74
2022-08-13T09:46:21.002Z,29.03
2022-08-13T09:48:53.952Z,29.00
2022-08-13T09:51:55.425Z,28.92
2022-08-13T09:54:20.431Z,29.27
2022-08-13T09:56:52.187Z,29.26
2022-08-13T09:59:31.385Z,29.41
2022-08-13T10:02:01.264Z,29.43
2022-08-13T10:04:41.212Z,29.57
2022-08-13T10:07:17.316Z,29.41
2022-08-13T10:10:22.157Z,29.52
2022-08-13T10:12:41.406Z,29.79
2022-08-13T10:15:23.888Z,30.01
2022-08-13T10:17:55.504Z,30.08
2022-08-13T10:20:29.446Z,29.88
2022-08-13T10:22:59.560Z,29.54
2022-08-13T10:25:38.727Z,29.38
2022-08-13T10:28:27.803Z,29.69
2022-08-13T10:31:48.740Z,29.78
2022-08-13T10:33:50.344Z,29.88
2022-08-13T10:36:20.242Z,30.02
2022-08-13T10:38:53.221Z,30.02
2022-08-13T10:41:22.679Z,29.93
2022-08-13T10:43:56.731Z,30.20
2022-08-13T10:46:34.527Z,30.42
2022-08-13T10:49:05.884Z,30.27
2022-08-13T10:51:45.100Z,30.22
2022-08-13T10:54:30.848Z,29.83
2022-08-13T10:57:01.935Z,29.87
2022-08-13T10:59:30.408Z,29.85
2022-08-13T11:02:11.769Z,29.94
2022-08-13T11:04:51.531Z,30.14
2022-08-13T11:07:21.766Z,29.79
2022-08-13T11:09:51.597Z,29.96
2022-08-13T11:12:20.875Z,29.90
2022-08-13T11:14:50.605Z,30.01
2022-08-13T11:17:51.848Z,30.11
2022-08-13T11:20:19.694Z,30.23
2022-08-13T11:22:53.458Z,30.10
2022-08-13T11:25:56.055Z,30.36
2022-08-13T11:28:16.855Z,30.17
2022-08-13T11:30:51.895Z,30.27
2022-08-13T11:33:41.315Z,30.45
2022-08-13T11:36:15.428Z,30.34
2022-08-13T11:38:43.476Z,30.25
2022-08-13T11:41:13.048Z,30.30
2022-08-13T11:43:58.220Z,30.23
2022-08-13T11:46:29.877Z,30.33
2022-08-13T11:49:09.807Z,30.37
2022-08-13T11:51:50.969Z,30.38
2022-08-13T11:54:30.006Z,30.50
2022-08-13T11:57:01.906Z,30.56
2022-08-13T11:59:42.202Z,30.50
2022-08-13T12:02:15.705Z,30.53
2022-08-13T12:04:49.232Z,30.54
2022-08-13T12:07:23.632Z,30.11
2022-08-13T12:09:58.248Z,30.18
2022-08-13T12:12:31.789Z,30.21
2022-08-13T12:15:03.962Z,30.19
2022-08-13T12:17:50.553Z,30.21
2022-08-13T12:20:28.415Z,30.15
2022-08-13T12:23:00.141Z,30.26
2022-08-13T12:26:02.534Z,30.27
2022-08-13T12:28:27.795Z,30.31
2022-08-13T12:31:01.835Z,30.21
2022-08-13T12:33:40.082Z,30.18
2022-08-13T12:36:17.236Z,30.23
2022-08-13T12:38:58.600Z,30.24
2022-08-13T12:41:38.895Z,30.39
2022-08-13T12:45:05.409Z,30.45
2022-08-13T12:47:03.110Z,29.73
2022-08-13T12:50:00.381Z,29.61
2022-08-13T12:52:31.997Z,29.50
2022-08-13T12:55:08.500Z,29.66
2022-08-13T12:58:04.766Z,29.66
2022-08-13T13:00:35.747Z,29.51
2022-08-13T13:03:12.578Z,29.70
2022-08-13T13:05:41.772Z,29.77
2022-08-13T13:08:30.068Z,29.43
2022-08-13T13:11:12.490Z,29.18
2022-08-13T13:13:59.891Z,29.30
2022-08-13T13:16:37.938Z,28.91
2022-08-13T13:19:14.771Z,29.22
2022-08-13T13:21:45.813Z,29.41
2022-08-13T13:24:23.470Z,29.50
2022-08-13T13:27:02.580Z,29.67
2022-08-13T13:29:41.506Z,29.64
2022-08-13T13:32:45.583Z,29.64
2022-08-13T13:35:37.839Z,29.77
2022-08-13T13:38:05.691Z,29.59
2022-08-13T13:40:44.214Z,29.42
2022-08-13T13:43:21.065Z,29.38
2022-08-13T13:45:54.883Z,29.24
2022-08-13T13:48:33.395Z,29.17
2022-08-13T13:51:08.697Z,29.15
2022-08-13T13:54:17.617Z,29.23
2022-08-13T13:56:30.688Z,29.39
2022-08-13T13:58:59.596Z,29.07
2022-08-13T14:01:44.003Z,28.60
2022-08-13T14:04:22.048Z,28.83
2022-08-13T14:06:49.963Z,29.02
2022-08-13T14:09:20.725Z,29.05
2022-08-13T14:11:54.269Z,29.05
2022-08-13T14:14:23.689Z,29.04
2022-08-13T14:16:58.607Z,29.13
2022-08-13T14:22:20.348Z,29.22
2022-08-13T14:24:50.424Z,29.20
2022-08-13T14:27:23.181Z,29.17
2022-08-13T14:29:53.310Z,29.19
2022-08-13T14:32:23.792Z,29.31
2022-08-13T14:35:05.734Z,28.70
2022-08-13T14:37:44.770Z,28.74
2022-08-13T14:40:31.917Z,28.88
2022-08-13T14:43:16.631Z,28.96
2022-08-13T14:46:00.392Z,28.73
2022-08-13T14:48:30.598Z,29.06
2022-08-13T14:51:19.546Z,29.05
2022-08-13T14:53:53.287Z,28.87
2022-08-13T14:56:28.396Z,28.95
2022-08-13T14:59:02.312Z,29.01
2022-08-13T15:01:31.429Z,29.00
2022-08-13T15:04:06.019Z,28.96
2022-08-13T15:06:40.854Z,29.03
2022-08-13T15:09:13.274Z,28.96
2022-08-13T15:11:49.332Z,28.91
2022-08-13T15:14:21.157Z,28.94
2022-08-13T15:16:51.635Z,28.89
2022-08-13T15:19:20.407Z,28.89
2022-08-13T15:21:52.111Z,28.87
2022-08-13T15:24:37.801Z,28.92
2022-08-13T15:27:34.881Z,28.78
2022-08-13T15:30:10.740Z,28.70
2022-08-13T15:32:53.961Z,28.61
2022-08-13T15:35:32.088Z,28.57
2022-08-13T15:38:11.582Z,28.73
2022-08-13T15:40:51.220Z,28.77
2022-08-13T15:43:36.210Z,28.63
2022-08-13T15:46:11.886Z,28.64
2022-08-13T15:48:49.530Z,28.60
2022-08-13T15:51:28.790Z,28.60
2022-08-13T15:54:00.553Z,28.53
2022-08-13T15:56:35.553Z,28.43
2022-08-13T15:59:05.619Z,28.50
2022-08-13T16:01:37.241Z,28.50
2022-08-13T16:04:16.164Z,28.44
2022-08-13T16:06:50.449Z,28.45
2022-08-13T16:09:49.604Z,28.49
2022-08-13T16:12:11.114Z,28.30
2022-08-13T16:14:48.083Z,28.39
2022-08-13T16:17:22.852Z,28.25
2022-08-13T16:19:55.869Z,28.15
2022-08-13T16:22:25.879Z,28.07
2022-08-13T16:24:59.386Z,28.13
2022-08-13T16:27:54.858Z,28.04
2022-08-13T16:30:29.120Z,28.15
2022-08-13T16:33:07.891Z,28.14
2022-08-13T16:35:46.851Z,27.95
2022-08-13T16:38:18.912Z,28.05
2022-08-13T16:40:52.549Z,28.05
2022-08-13T16:43:24.572Z,27.90
2022-08-13T16:45:54.045Z,27.88
2022-08-13T16:48:28.623Z,27.79
2022-08-13T16:50:57.580Z,27.70
2022-08-13T16:54:24.664Z,27.71
2022-08-13T16:56:18.681Z,27.60
2022-08-13T16:58:51.081Z,27.48
2022-08-13T17:01:19.666Z,27.47
2022-08-13T17:05:09.444Z,27.24
2022-08-13T17:07:17.169Z,27.20
2022-08-13T17:09:46.885Z,27.18
2022-08-13T17:12:21.028Z,27.11
2022-08-13T17:14:51.579Z,26.98
2022-08-13T17:17:19.780Z,27.01
2022-08-13T17:19:59.856Z,26.77
2022-08-13T17:22:34.093Z,26.70
2022-08-13T17:25:03.576Z,26.64
2022-08-13T17:27:35.130Z,26.48
2022-08-13T17:30:07.319Z,26.40
2022-08-13T17:32:47.896Z,26.29
2022-08-13T17:35:23.908Z,26.27
2022-08-13T17:37:58.689Z,26.18
2022-08-13T17:40:34.076Z,26.21
2022-08-13T17:43:58.904Z,26.14
2022-08-13T17:45:59.640Z,25.95
2022-08-13T17:48:36.540Z,25.96
2022-08-13T17:51:26.201Z,25.73
2022-08-13T17:53:58.808Z,25.59
2022-08-13T17:56:30.483Z,25.44
2022-08-13T17:59:09.447Z,25.25
2022-08-13T18:01:40.899Z,25.09
2022-08-13T18:04:12.872Z,25.13
2022-08-13T18:06:50.070Z,25.04
2022-08-13T18:09:22.024Z,24.92
2022-08-13T18:12:11.209Z,24.80
2022-08-13T18:14:49.668Z,24.72
2022-08-13T18:17:36.538Z,24.36
2022-08-13T18:20:13.212Z,24.21
2022-08-13T18:22:42.016Z,24.02
2022-08-13T18:25:14.469Z,24.09
2022-08-13T18:28:06.293Z,23.97
2022-08-13T18:30:46.945Z,23.88
2022-08-13T18:34:03.654Z,23.82
2022-08-13T18:36:20.273Z,23.68
2022-08-13T18:38:50.089Z,23.53
2022-08-13T18:41:23.816Z,23.47
2022-08-13T18:43:54.236Z,23.32
2022-08-13T18:46:28.499Z,23.26
2022-08-13T18:49:00.588Z,23.30
2022-08-13T18:51:40.749Z,23.10
2022-08-13T18:54:36.331Z,22.94
2022-08-13T18:57:08.265Z,22.82
2022-08-13T18:59:42.329Z,22.74
2022-08-13T19:02:15.410Z,22.61
2022-08-13T19:04:46.968Z,22.51
2022-08-13T19:07:33.447Z,22.30
2022-08-13T19:10:07.216Z,22.43
2022-08-13T19:12:39.955Z,22.26
2022-08-13T19:15:16.820Z,22.29
2022-08-13T19:17:55.993Z,22.05
2022-08-13T19:20:35.257Z,21.96
2022-08-13T19:23:13.073Z,21.82
2022-08-13T19:25:54.970Z,21.80
2022-08-13T19:28:55.902Z,21.87
2022-08-13T19:31:19.051Z,21.83
2022-08-13T19:33:50.558Z,21.75
2022-08-13T19:36:34.356Z,21.76
2022-08-13T19:39:25.673Z,21.58
2022-08-13T19:41:57.274Z,21.70
2022-08-13T19:44:30.514Z,21.54
2022-08-13T19:47:06.117Z,21.32
2022-08-13T19:49:55.734Z,21.18
2022-08-13T19:52:28.290Z,21.01
2022-08-13T19:54:59.497Z,20.77
2022-08-13T19:57:32.331Z,20.79
2022-08-13T20:00:15.746Z,20.76
2022-08-13T20:02:51.828Z,20.84
2022-08-13T20:05:51.133Z,20.80
2022-08-13T20:08:35.012Z,20.59
2022-08-13T20:11:23.319Z,20.36
2022-08-13T20:13:56.126Z,20.20
2022-08-13T20:16:28.601Z,20.14
2022-08-13T20:18:57.986Z,20.08
2022-08-13T20:21:45.393Z,20.05
2022-08-13T20:25:43.960Z,20.07
2022-08-13T20:27:43.160Z,20.08
2022-08-13T20:30:04.880Z,19.82
2022-08-13T20:32:34.001Z,19.68
2022-08-13T20:35:08.338Z,19.79
2022-08-13T20:37:58.529Z,19.70
2022-08-13T20:40:29.567Z,19.83
2022-08-13T20:43:06.840Z,19.60
2022-08-13T20:45:43.734Z,19.45
2022-08-13T20:48:30.996Z,19.31
2022-08-13T20:51:02.835Z,19.21
2022-08-13T20:53:41.316Z,19.22
2022-08-13T20:56:41.371Z,19.14
2022-08-13T21:00:46.783Z,18.82
2022-08-13T21:01:56.787Z,18.75
2022-08-13T21:04:25.352Z,18.56
2022-08-13T21:06:56.664Z,18.43
2022-08-13T21:09:27.851Z,18.16
2022-08-13T21:11:58.246Z,18.09
2022-08-13T21:14:31.142Z,17.88
2022-08-13T21:17:00.671Z,17.78
2022-08-13T21:19:37.783Z,17.68
2022-08-13T21:22:08.744Z,17.56
2022-08-13T21:24:39.865Z,17.58
2022-08-13T21:27:24.577Z,17.49
2022-08-13T21:30:04.659Z,17.48
2022-08-13T21:32:38.550Z,17.46
2022-08-13T21:35:08.666Z,17.50
2022-08-13T21:37:39.335Z,17.32
2022-08-13T21:40:10.494Z,17.27
2022-08-13T21:42:39.743Z,17.06
2022-08-13T21:45:15.307Z,16.93
2022-08-13T21:47:46.738Z,16.83
2022-08-13T21:50:16.141Z,16.75
2022-08-13T21:52:52.866Z,16.74
2022-08-13T21:55:26.618Z,16.85
2022-08-13T21:57:55.855Z,16.79
2022-08-13T22:00:31.082Z,16.63
2022-08-13T22:03:05.838Z,16.52
2022-08-13T22:05:59.544Z,16.48
2022-08-13T22:08:32.971Z,16.52
2022-08-13T22:11:04.614Z,16.43
2022-08-13T22:13:36.314Z,16.27
2022-08-13T22:16:05.203Z,16.25
2022-08-13T22:18:39.585Z,16.23
2022-08-13T22:21:08.278Z,16.24
2022-08-13T22:23:40.450Z,16.19
2022-08-13T22:26:15.372Z,16.06
2022-08-13T22:29:05.468Z,16.16
2022-08-13T22:31:36.053Z,16.10
2022-08-13T22:34:18.615Z,15.98
2022-08-13T22:36:56.412Z,15.95
2022-08-13T22:39:28.881Z,15.67
2022-08-13T22:42:00.082Z,15.57
2022-08-13T22:44:33.650Z,15.60
2022-08-13T22:47:04.666Z,15.78
2022-08-13T22:49:38.641Z,15.83
2022-08-13T22:52:08.076Z,15.70
2022-08-13T22:54:49.239Z,15.64
2022-08-13T22:57:18.495Z,15.72
2022-08-13T22:59:52.314Z,15.57
2022-08-13T23:02:23.555Z,15.48
2022-08-13T23:04:52.099Z,15.41
2022-08-13T23:07:21.911Z,15.35
2022-08-13T23:09:50.045Z,15.32
2022-08-13T23:12:25.469Z,15.35
2022-08-13T23:14:54.232Z,15.37
2022-08-13T23:17:22.157Z,15.20
2022-08-13T23:19:59.325Z,15.16
2022-08-13T23:22:32.188Z,15.23
2022-08-13T23:25:05.571Z,15.23
2022-08-13T23:27:34.826Z,15.13
2022-08-13T23:30:15.782Z,15.21
2022-08-13T23:32:53.551Z,15.17
2022-08-13T23:35:21.782Z,15.18
2022-08-13T23:37:53.974Z,15.10
2022-08-13T23:40:22.540Z,15.23
2022-08-13T23:42:53.256Z,15.17
2022-08-13T23:45:26.622Z,15.12
2022-08-13T23:47:57.598Z,15.13
2022-08-13T23:50:30.375Z,15.14
2022-08-13T23:52:58.602Z,15.14
2022-08-13T23:55:37.203Z,15.12
2022-08-13T23:58:18.396Z,15.03
